Time;durP1;ratioP1;P1;durP2;ratioP2;P2;SDS_P1;SDS_P2;PMS_P1;PMS_P2;Temp;Humidity;BMP_temperature;BMP_pressure;BME280_temperature;BME280_humidity;BME280_pressure;Samples;Min_cycle;Max_cycle;Signal;HPM_P1;HPM_P2
2023/03/28 00:02:05;;;;;;;1999.90;999.90;;;;;;;1.45;100.00;95405.53;5083528;28;20196;-59
2023/03/28 00:04:30;;;;;;;1999.90;999.90;;;;;;;1.39;100.00;95402.31;5083401;28;20197;-59
2023/03/28 00:06:56;;;;;;;1999.90;999.90;;;;;;;1.33;100.00;95395.63;5083419;28;20174;-59
2023/03/28 00:09:21;;;;;;;1999.90;999.90;;;;;;;1.34;100.00;95393.72;5083506;28;20167;-58
2023/03/28 00:11:46;;;;;;;1999.90;999.90;;;;;;;1.30;100.00;95393.59;5083307;28;20221;-58
2023/03/28 00:14:15;;;;;;;1999.90;999.90;;;;;;;1.31;100.00;95389.78;5083346;28;20164;-59
2023/03/28 00:16:45;;;;;;;1999.90;999.90;;;;;;;1.30;100.00;95398.97;5083295;28;20181;-58
2023/03/28 00:19:15;;;;;;;1999.90;999.90;;;;;;;1.23;100.00;95389.94;5083843;28;20287;-59
2023/03/28 00:21:45;;;;;;;1999.90;999.90;;;;;;;1.20;100.00;95399.47;5083314;28;20172;-59
2023/03/28 00:24:13;;;;;;;1999.90;999.90;;;;;;;1.21;100.00;95393.00;5083312;28;20170;-59
2023/03/28 00:26:39;;;;;;;1999.90;999.90;;;;;;;1.19;100.00;95397.91;5083697;28;20172;-59
2023/03/28 00:29:08;;;;;;;1999.90;999.90;;;;;;;1.16;100.00;95392.47;5083010;28;20224;-59
2023/03/28 00:31:36;;;;;;;1999.90;999.90;;;;;;;1.19;100.00;95387.16;5083631;28;20180;-59
2023/03/28 00:34:01;;;;;;;1999.90;999.90;;;;;;;1.26;100.00;95360.47;5083056;28;20207;-59
2023/03/28 00:36:28;;;;;;;1999.90;999.90;;;;;;;1.31;100.00;95372.88;5083135;28;20179;-58
2023/03/28 00:38:55;;;;;;;1999.90;999.90;;;;;;;1.42;100.00;95369.31;5083194;28;20202;-58
2023/03/28 00:41:22;;;;;;;1999.90;999.90;;;;;;;1.47;100.00;95387.91;5083389;28;20168;-59
2023/03/28 00:43:53;;;;;;;1999.90;999.90;;;;;;;1.58;100.00;95394.34;5086842;28;20176;-59
2023/03/28 00:46:25;;;;;;;1999.90;999.90;;;;;;;1.52;100.00;95406.47;5087234;28;20185;-59
2023/03/28 00:48:53;;;;;;;1999.90;999.90;;;;;;;1.58;100.00;95418.56;5087195;28;20165;-59
2023/03/28 00:51:24;;;;;;;1999.90;999.90;;;;;;;1.64;100.00;95433.31;5086488;28;20170;-59
2023/03/28 00:53:51;;;;;;;1999.90;999.90;;;;;;;1.63;100.00;95445.22;5086904;28;20200;-59
2023/03/28 00:56:20;;;;;;;1999.90;999.90;;;;;;;1.66;100.00;95463.34;5087234;28;20193;-60
2023/03/28 00:58:48;;;;;;;1999.90;999.90;;;;;;;1.67;100.00;95462.22;5086405;28;20214;-59
2023/03/28 01:01:16;;;;;;;1999.90;999.90;;;;;;;1.65;100.00;95486.03;5086623;28;20169;-59
2023/03/28 01:03:45;;;;;;;1999.90;999.90;;;;;;;1.66;100.00;95492.16;5086839;28;20166;-59
2023/03/28 01:06:14;;;;;;;1999.90;999.90;;;;;;;1.62;100.00;95497.47;5086802;28;20170;-60
2023/03/28 01:08:43;;;;;;;1999.90;999.90;;;;;;;1.62;100.00;95505.53;5086690;28;20169;-58
2023/03/28 01:11:10;;;;;;;1999.90;999.90;;;;;;;1.65;100.00;95507.53;5086261;28;20168;-59
2023/03/28 01:13:40;;;;;;;1999.90;999.90;;;;;;;1.62;100.00;95508.22;5086235;28;20170;-58
2023/03/28 01:16:07;;;;;;;1999.90;999.90;;;;;;;1.57;100.00;95513.84;5086597;28;20189;-59
2023/03/28 01:18:34;;;;;;;1999.90;999.90;;;;;;;1.52;100.00;95524.84;5086329;28;20169;-59
2023/03/28 01:21:10;;;;;;;1999.90;999.90;;;;;;;1.40;100.00;95511.44;5086468;28;20172;-59
2023/03/28 01:24:18;;;;;;;1999.90;999.90;;;;;;;1.37;100.00;95522.88;5086476;28;20169;-59
2023/03/28 01:26:55;;;;;;;1999.90;999.90;;;;;;;1.36;100.00;95515.94;5085825;28;20228;-58
2023/03/28 01:29:23;;;;;;;1999.90;999.90;;;;;;;1.40;100.00;95506.06;5085951;28;20220;-59
2023/03/28 01:32:07;;;;;;;1999.90;999.90;;;;;;;1.39;100.00;95504.53;5085789;28;20195;-58
2023/03/28 01:34:49;;;;;;;1999.90;999.90;;;;;;;1.31;100.00;95508.09;5086274;28;20200;-60
2023/03/28 01:37:25;;;;;;;1999.90;999.90;;;;;;;1.22;100.00;95501.31;5086242;28;20168;-59
2023/03/28 01:39:50;;;;;;;1999.90;999.90;;;;;;;1.13;100.00;95496.06;5085657;28;20187;-59
2023/03/28 01:42:25;;;;;;;1999.90;999.90;;;;;;;1.08;100.00;95498.22;5086129;28;20172;-58
2023/03/28 01:44:53;;;;;;;1999.90;999.90;;;;;;;1.03;100.00;95485.81;5086019;28;20239;-58
2023/03/28 01:47:30;;;;;;;1999.90;999.90;;;;;;;1.00;100.00;95469.56;5085762;28;20236;-58
2023/03/28 01:50:07;;;;;;;1999.90;999.90;;;;;;;1.00;100.00;95464.19;5085946;28;20236;-58
2023/03/28 01:52:57;;;;;;;1999.90;999.90;;;;;;;0.94;100.00;95463.63;5085808;28;20234;-59
2023/03/28 01:55:29;;;;;;;1999.90;999.90;;;;;;;0.92;100.00;95452.47;5085444;28;20205;-59
2023/03/28 01:58:03;;;;;;;1999.90;999.90;;;;;;;0.97;100.00;95437.97;5085869;28;20219;-60
2023/03/28 02:00:38;;;;;;;1999.90;999.90;;;;;;;1.04;100.00;95438.97;5085383;28;20169;-59
2023/03/28 02:03:21;;;;;;;1999.90;999.90;;;;;;;1.09;100.00;95437.97;5085864;28;20172;-59
2023/03/28 02:05:49;;;;;;;1999.90;999.90;;;;;;;1.12;100.00;95397.72;5085851;28;20173;-59
2023/03/28 02:08:17;;;;;;;1999.90;999.90;;;;;;;1.09;100.00;95403.00;5085979;28;20177;-59
2023/03/28 02:10:45;;;;;;;1999.90;999.90;;;;;;;1.08;100.00;95421.03;5084767;28;20193;-59
2023/03/28 02:13:16;;;;;;;1999.90;999.90;;;;;;;1.02;100.00;95413.56;5085560;28;20176;-58
2023/03/28 02:15:45;;;;;;;1999.90;999.90;;;;;;;0.94;100.00;95426.00;5084843;28;20204;-58
2023/03/28 02:18:33;;;;;;;1999.90;999.90;;;;;;;0.93;100.00;95426.34;5084906;28;20192;-59
2023/03/28 02:21:28;;;;;;;1999.90;999.90;;;;;;;0.92;100.00;95424.78;5084899;28;20247;-58
2023/03/28 02:23:55;;;;;;;1999.90;999.90;;;;;;;0.91;100.00;95415.19;5082063;28;20211;-57
2023/03/28 02:26:22;;;;;;;1999.90;999.90;;;;;;;0.91;100.00;95421.31;5084762;28;20235;-58
2023/03/28 02:28:52;;;;;;;1999.90;999.90;;;;;;;0.89;100.00;95431.63;5084453;28;20222;-58
2023/03/28 02:31:20;;;;;;;1999.90;999.90;;;;;;;0.91;100.00;95424.00;5085130;28;20169;-58
2023/03/28 02:33:47;;;;;;;1999.90;999.90;;;;;;;1.00;100.00;95432.72;5085055;28;20168;-59
2023/03/28 02:36:13;;;;;;;1999.90;999.90;;;;;;;1.07;100.00;95437.50;5084388;28;20201;-59
2023/03/28 02:39:01;;;;;;;1999.90;999.90;;;;;;;1.05;100.00;95434.41;5084601;28;20219;-59
2023/03/28 02:41:52;;;;;;;1999.90;999.90;;;;;;;1.01;100.00;95442.34;5084999;28;20171;-59
2023/03/28 02:44:34;;;;;;;1999.90;999.90;;;;;;;0.98;100.00;95453.78;5084896;28;20184;-59
2023/03/28 02:47:31;;;;;;;1999.90;999.90;;;;;;;0.98;100.00;95456.47;5084731;28;20173;-59
2023/03/28 02:49:56;;;;;;;1999.90;999.90;;;;;;;0.92;100.00;95468.59;5084749;28;20164;-59
2023/03/28 02:52:24;;;;;;;1999.90;999.90;;;;;;;0.84;100.00;95471.41;5083984;28;20219;-59
2023/03/28 02:55:11;;;;;;;1999.90;999.90;;;;;;;0.79;100.00;95475.09;5084535;28;20558;-59
2023/03/28 02:57:47;;;;;;;1999.90;999.90;;;;;;;0.76;100.00;95480.38;5084811;28;20187;-59
2023/03/28 03:00:17;;;;;;;1999.90;999.90;;;;;;;0.63;100.00;95486.88;5084205;28;20176;-59
2023/03/28 03:02:45;;;;;;;1999.90;999.90;;;;;;;0.60;100.00;95492.91;5084341;28;20169;-59
2023/03/28 03:05:10;;;;;;;1999.90;999.90;;;;;;;0.57;100.00;95494.38;5083641;28;20172;-59
2023/03/28 03:07:36;;;;;;;1999.90;999.90;;;;;;;0.58;100.00;95490.56;5084072;28;20169;-59
2023/03/28 03:10:07;;;;;;;1999.90;999.90;;;;;;;0.55;100.00;95491.28;5084087;28;20178;-59
2023/03/28 03:12:33;;;;;;;1999.90;999.90;;;;;;;0.56;100.00;95492.81;5084017;28;20210;-59
2023/03/28 03:14:59;;;;;;;1999.90;999.90;;;;;;;0.57;100.00;95502.44;5083876;28;20267;-59
2023/03/28 03:17:26;;;;;;;1999.90;999.90;;;;;;;0.54;100.00;95500.41;5084844;28;20188;-59
2023/03/28 03:19:51;;;;;;;1999.90;999.90;;;;;;;0.60;100.00;95492.91;5083960;28;20542;-59
2023/03/28 03:22:17;;;;;;;1999.90;999.90;;;;;;;0.62;100.00;95491.47;5083965;28;20176;-59
2023/03/28 03:24:43;;;;;;;1999.90;999.90;;;;;;;0.65;100.00;95484.66;5083872;28;20171;-59
2023/03/28 03:27:08;;;;;;;1999.90;999.90;;;;;;;0.64;100.00;95494.59;5083515;28;20198;-59
2023/03/28 03:29:33;;;;;;;1999.90;999.90;;;;;;;0.69;100.00;95502.41;5083786;28;20228;-58
2023/03/28 03:31:59;;;;;;;1999.90;999.90;;;;;;;0.73;100.00;95506.00;5084344;28;20353;-59
2023/03/28 03:34:25;;;;;;;1999.90;999.90;;;;;;;0.64;100.00;95510.72;5084362;28;20229;-59
2023/03/28 03:36:53;;;;;;;1999.90;999.90;;;;;;;0.68;100.00;95524.25;5084500;28;20243;-59
2023/03/28 03:39:19;;;;;;;1999.90;999.90;;;;;;;0.69;100.00;95529.28;5084370;28;20269;-59
2023/03/28 03:41:44;;;;;;;1999.90;999.90;;;;;;;0.67;100.00;95536.13;5084220;28;20267;-59
2023/03/28 03:44:10;;;;;;;1999.90;999.90;;;;;;;0.65;100.00;95539.13;5083915;28;20172;-59
2023/03/28 03:46:35;;;;;;;1999.90;999.90;;;;;;;0.63;100.00;95549.47;5083702;28;20176;-59
2023/03/28 03:49:01;;;;;;;1999.90;999.90;;;;;;;0.63;100.00;95559.41;5083698;28;20247;-59
2023/03/28 03:51:26;;;;;;;1999.90;999.90;;;;;;;0.64;100.00;95553.69;5083669;28;20176;-58
2023/03/28 03:53:51;;;;;;;1999.90;999.90;;;;;;;0.70;100.00;95570.38;5083583;28;20197;-58
2023/03/28 03:56:17;;;;;;;1999.90;999.90;;;;;;;0.72;100.00;95563.53;5083672;28;20210;-59
2023/03/28 03:58:42;;;;;;;1999.90;999.90;;;;;;;0.72;100.00;95566.22;5083472;28;20176;-59
2023/03/28 04:01:12;;;;;;;1999.90;999.90;;;;;;;0.72;100.00;95576.97;5084465;28;20176;-59
2023/03/28 04:03:39;;;;;;;1999.90;999.90;;;;;;;0.77;100.00;95579.47;5083291;28;20181;-59
2023/03/28 04:06:04;;;;;;;1999.90;999.90;;;;;;;0.85;100.00;95585.81;5083513;28;20173;-59
2023/03/28 04:08:30;;;;;;;1999.90;999.90;;;;;;;0.86;100.00;95590.88;5083514;28;20177;-59
2023/03/28 04:10:55;;;;;;;1999.90;999.90;;;;;;;0.78;100.00;95597.16;5083491;28;20172;-59
2023/03/28 04:13:21;;;;;;;1999.90;999.90;;;;;;;0.73;100.00;95613.47;5084313;28;20175;-59
2023/03/28 04:15:46;;;;;;;1999.90;999.90;;;;;;;0.65;100.00;95619.72;5083311;28;20271;-59
2023/03/28 04:18:14;;;;;;;1999.90;999.90;;;;;;;0.57;100.00;95623.31;5086594;28;20172;-58
2023/03/28 04:20:40;;;;;;;1999.90;999.90;;;;;;;0.65;100.00;95618.97;5088062;28;20172;-58
2023/03/28 04:23:07;;;;;;;1999.90;999.90;;;;;;;0.62;100.00;95620.41;5087056;28;20206;-59
2023/03/28 04:25:32;;;;;;;1999.90;999.90;;;;;;;0.61;100.00;95628.81;5086791;28;20169;-58
2023/03/28 04:28:00;;;;;;;1999.90;999.90;;;;;;;0.55;100.00;95638.19;5086977;28;20170;-59
2023/03/28 04:30:26;;;;;;;1999.90;999.90;;;;;;;0.51;100.00;95634.63;5086901;28;20229;-58
2023/03/28 04:32:53;;;;;;;1999.90;999.90;;;;;;;0.53;100.00;95637.72;5086899;28;20195;-58
2023/03/28 04:35:19;;;;;;;1999.90;999.90;;;;;;;0.50;100.00;95636.50;5087320;28;20247;-58
2023/03/28 04:37:46;;;;;;;1999.90;999.90;;;;;;;0.40;100.00;95636.94;5086783;28;20172;-58
2023/03/28 04:40:14;;;;;;;1999.90;999.90;;;;;;;0.33;100.00;95633.22;5086682;28;20176;-58
2023/03/28 04:42:40;;;;;;;1999.90;999.90;;;;;;;0.34;100.00;95619.47;5087344;28;20217;-58
2023/03/28 04:45:07;;;;;;;1999.90;999.90;;;;;;;0.34;100.00;95619.47;5086269;28;20175;-58
2023/03/28 04:47:32;;;;;;;1999.90;999.90;;;;;;;0.35;100.00;95622.94;5087058;28;20172;-58
2023/03/28 04:49:58;;;;;;;1999.90;999.90;;;;;;;0.34;100.00;95611.41;5087047;28;20202;-58
2023/03/28 04:52:23;;;;;;;1999.90;999.90;;;;;;;0.34;100.00;95619.47;5086533;28;20212;-58
2023/03/28 04:54:50;;;;;;;1999.90;999.90;;;;;;;0.34;100.00;95614.09;5086941;28;20205;-57
2023/03/28 04:57:16;;;;;;;1999.90;999.90;;;;;;;0.44;100.00;95618.25;5086538;28;20178;-59
2023/03/28 04:59:41;;;;;;;1999.90;999.90;;;;;;;0.44;100.00;95615.56;5086371;28;20191;-58
2023/03/28 05:02:06;;;;;;;1999.90;999.90;;;;;;;0.34;100.00;95635.59;5086483;28;20210;-58
2023/03/28 05:04:32;;;;;;;1999.90;999.90;;;;;;;0.33;100.00;95627.88;5086395;28;20173;-59
2023/03/28 05:06:57;;;;;;;1999.90;999.90;;;;;;;0.29;100.00;95635.78;5086510;28;20169;-60
2023/03/28 05:09:23;;;;;;;1999.90;999.90;;;;;;;0.29;100.00;95632.31;5086567;28;20256;-57
2023/03/28 05:11:48;;;;;;;1999.90;999.90;;;;;;;0.28;100.00;95631.53;5086130;28;20167;-58
2023/03/28 05:14:14;;;;;;;1999.90;999.90;;;;;;;0.27;100.00;95632.66;5086048;28;20229;-59
2023/03/28 05:16:39;;;;;;;1999.90;999.90;;;;;;;0.23;100.00;95639.81;5086618;28;20240;-59
2023/03/28 05:19:05;;;;;;;1999.90;999.90;;;;;;;0.25;100.00;95648.28;5086504;28;20250;-57
2023/03/28 05:21:31;;;;;;;1999.90;999.90;;;;;;;0.29;100.00;95641.16;5086565;28;20196;-59
2023/03/28 05:23:56;;;;;;;1999.90;999.90;;;;;;;0.36;100.00;95646.75;5086013;28;20194;-59
2023/03/28 05:26:22;;;;;;;1999.90;999.90;;;;;;;0.37;100.00;95651.03;5086421;28;20179;-59
2023/03/28 05:28:47;;;;;;;1999.90;999.90;;;;;;;0.47;100.00;95655.97;5085139;28;20399;-59
2023/03/28 05:31:13;;;;;;;1999.90;999.90;;;;;;;0.50;100.00;95655.31;5085969;28;20167;-59
2023/03/28 05:33:38;;;;;;;1999.90;999.90;;;;;;;0.51;100.00;95667.59;5085763;28;20167;-58
2023/03/28 05:36:04;;;;;;;1999.90;999.90;;;;;;;0.48;100.00;95679.03;5085748;28;20197;-58
2023/03/28 05:38:32;;;;;;;1999.90;999.90;;;;;;;0.44;100.00;95694.25;5085472;28;20218;-58
2023/03/28 05:40:57;;;;;;;1999.90;999.90;;;;;;;0.53;100.00;95686.88;5086201;28;20180;-58
2023/03/28 05:43:23;;;;;;;1999.90;999.90;;;;;;;0.50;100.00;95711.72;5085984;28;20245;-58
2023/03/28 05:45:49;;;;;;;1999.90;999.90;;;;;;;0.65;100.00;95731.81;5085500;28;20169;-59
2023/03/28 05:48:14;;;;;;;1999.90;999.90;;;;;;;0.96;100.00;95732.09;5085918;28;20209;-58
2023/03/28 05:50:40;;;;;;;1999.90;999.90;;;;;;;1.80;100.00;95738.28;5085439;28;20177;-58
2023/03/28 05:53:05;;;;;;;1999.90;999.90;;;;;;;2.53;100.00;95779.28;5085367;28;20176;-59
2023/03/28 05:55:31;;;;;;;1999.90;999.90;;;;;;;3.01;100.00;95841.88;5085242;28;20264;-58
2023/03/28 05:57:56;;;;;;;1999.90;999.90;;;;;;;3.53;100.00;95885.69;5085440;28;20169;-59
2023/03/28 06:00:22;;;;;;;1999.90;999.90;;;;;;;4.35;100.00;95942.56;5085437;28;20173;-58
2023/03/28 06:02:49;;;;;;;1999.90;999.90;;;;;;;4.64;100.00;95996.16;5085505;28;20169;-59
2023/03/28 06:05:15;;;;;;;1999.90;999.90;;;;;;;5.59;100.00;96009.91;5085213;28;20176;-59
2023/03/28 06:07:40;;;;;;;1999.90;999.90;;;;;;;6.35;100.00;96048.63;5085550;28;20172;-59
2023/03/28 06:10:07;;;;;;;1999.90;999.90;;;;;;;6.85;100.00;96055.72;5085006;28;20203;-59
2023/03/28 06:12:32;;;;;;;1999.90;999.90;;;;;;;6.68;100.00;96078.69;5084787;28;20176;-60
2023/03/28 06:14:58;;;;;;;1999.90;999.90;;;;;;;7.61;100.00;96087.91;5084810;28;20193;-59
2023/03/28 06:17:24;;;;;;;1999.90;999.90;;;;;;;8.20;100.00;96090.66;5084769;28;20177;-59
2023/03/28 06:19:49;;;;;;;1999.90;999.90;;;;;;;8.57;100.00;96099.69;5085421;28;20165;-59
2023/03/28 06:22:15;;;;;;;1999.90;999.90;;;;;;;8.82;100.00;96108.09;5084632;28;20179;-58
2023/03/28 06:24:40;;;;;;;1999.90;999.90;;;;;;;8.14;100.00;96116.63;5085360;28;20175;-59
2023/03/28 06:27:06;;;;;;;1999.90;999.90;;;;;;;6.90;100.00;96117.84;5084496;28;20296;-58
2023/03/28 06:29:31;;;;;;;1999.90;999.90;;;;;;;6.26;100.00;96120.50;5084633;28;20222;-58
2023/03/28 06:31:56;;;;;;;1999.90;999.90;;;;;;;5.75;100.00;96125.22;5084480;28;20211;-59
2023/03/28 06:34:22;;;;;;;1999.90;999.90;;;;;;;5.75;100.00;96132.53;5085050;28;20174;-59
2023/03/28 06:36:47;;;;;;;1999.90;999.90;;;;;;;5.35;100.00;96132.81;5084460;28;20216;-58
2023/03/28 06:39:13;;;;;;;1999.90;999.90;;;;;;;4.94;100.00;96129.84;5083692;28;20205;-58
2023/03/28 06:41:38;;;;;;;1999.90;999.90;;;;;;;4.69;100.00;96134.63;5084351;28;20176;-59
2023/03/28 06:44:04;;;;;;;1999.90;999.90;;;;;;;5.09;100.00;96131.78;5084899;28;20192;-58
2023/03/28 06:46:29;;;;;;;1999.90;999.90;;;;;;;5.76;100.00;96134.13;5084293;28;20181;-59
2023/03/28 06:48:55;;;;;;;1999.90;999.90;;;;;;;6.13;100.00;96143.47;5084180;28;20179;-58
2023/03/28 06:51:20;;;;;;;1999.90;999.90;;;;;;;6.22;100.00;96146.75;5084157;28;20173;-58
2023/03/28 06:53:46;;;;;;;1999.90;999.90;;;;;;;6.03;100.00;96150.25;5084167;28;20204;-59
2023/03/28 06:56:12;;;;;;;1999.90;999.90;;;;;;;7.61;100.00;96147.72;5084407;28;20228;-58
2023/03/28 06:58:38;;;;;;;1999.90;999.90;;;;;;;8.37;100.00;96152.69;5084604;28;20201;-58
2023/03/28 07:01:04;;;;;;;1999.90;999.90;;;;;;;8.78;100.00;96146.19;5084023;28;20179;-59
2023/03/28 07:03:29;;;;;;;1999.90;999.90;;;;;;;7.97;100.00;96155.25;5084047;28;20254;-58
2023/03/28 07:05:55;;;;;;;1999.90;999.90;;;;;;;7.52;100.00;96166.22;5084086;28;20178;-58
2023/03/28 07:08:21;;;;;;;1999.90;999.90;;;;;;;7.41;100.00;96165.25;5084076;28;20187;-58
2023/03/28 07:10:46;;;;;;;1999.90;999.90;;;;;;;7.53;100.00;96170.50;5083985;28;20178;-59
2023/03/28 07:13:12;;;;;;;1999.90;999.90;;;;;;;7.08;100.00;96178.66;5084462;28;20177;-58
2023/03/28 07:15:38;;;;;;;1999.90;999.90;;;;;;;6.57;100.00;96188.16;5084626;28;20228;-58
2023/03/28 07:18:04;;;;;;;1999.90;999.90;;;;;;;6.64;100.00;96180.16;5083875;28;20179;-58
2023/03/28 07:20:30;;;;;;;1999.90;999.90;;;;;;;6.49;100.00;96189.16;5083959;28;20212;-58
2023/03/28 07:22:56;;;;;;;1999.90;999.90;;;;;;;6.88;100.00;96190.69;5083822;28;20174;-58
2023/03/28 07:25:23;;;;;;;1999.90;999.90;;;;;;;7.64;100.00;96178.81;5084592;28;20242;-58
2023/03/28 07:27:49;;;;;;;1999.90;999.90;;;;;;;7.74;100.00;96195.31;5084232;28;20173;-59
2023/03/28 07:30:14;;;;;;;1999.90;999.90;;;;;;;8.37;100.00;96190.00;5083919;28;20221;-59
2023/03/28 07:32:40;;;;;;;1999.90;999.90;;;;;;;8.08;100.00;96194.25;5083921;28;20177;-58
2023/03/28 07:35:06;;;;;;;1999.90;999.90;;;;;;;7.73;100.00;96199.19;5083724;28;20258;-58
2023/03/28 07:37:32;;;;;;;1999.90;999.90;;;;;;;7.09;100.00;96201.94;5084194;28;20179;-58
2023/03/28 07:39:59;;;;;;;1999.90;999.90;;;;;;;6.68;100.00;96210.88;5084282;28;20184;-58
2023/03/28 07:42:25;;;;;;;1999.90;999.90;;;;;;;6.57;100.00;96223.44;5084150;28;20175;-58
2023/03/28 07:44:51;;;;;;;1999.90;999.90;;;;;;;6.95;100.00;96209.84;5083725;28;20203;-58
2023/03/28 07:47:17;;;;;;;1999.90;999.90;;;;;;;8.47;100.00;96209.22;5083365;28;20178;-58
2023/03/28 07:49:43;;;;;;;1999.90;999.90;;;;;;;8.18;100.00;96209.94;5083200;28;20175;-58
2023/03/28 07:52:09;;;;;;;1999.90;999.90;;;;;;;7.85;100.00;96219.91;5087546;28;20245;-58
2023/03/28 07:54:34;;;;;;;1999.90;999.90;;;;;;;7.13;100.00;96219.09;5088048;28;20198;-57
2023/03/28 07:56:59;;;;;;;1999.90;999.90;;;;;;;7.57;100.00;96222.97;5087583;28;20185;-59
2023/03/28 07:59:25;;;;;;;1999.90;999.90;;;;;;;7.43;100.00;96224.69;5087661;28;20473;-57
2023/03/28 08:01:51;;;;;;;1999.90;999.90;;;;;;;6.75;100.00;96230.00;5087587;28;20182;-57
2023/03/28 08:04:17;;;;;;;1999.90;999.90;;;;;;;6.28;100.00;96232.13;5087523;28;20177;-56
2023/03/28 08:06:42;;;;;;;1999.90;999.90;;;;;;;8.86;100.00;96217.84;5087476;28;20174;-59
2023/03/28 08:09:11;;;;;;;1999.90;999.90;;;;;;;8.33;100.00;96228.06;5087391;28;20173;-56
2023/03/28 08:11:38;;;;;;;1999.90;999.90;;;;;;;7.69;100.00;96228.25;5087301;28;20183;-57
2023/03/28 08:14:08;;;;;;;1999.90;999.90;;;;;;;6.99;100.00;96240.53;5087187;28;20184;-57
2023/03/28 08:16:33;;;;;;;1999.90;999.90;;;;;;;6.61;100.00;96248.72;5087184;28;20272;-57
2023/03/28 08:18:59;;;;;;;1999.90;999.90;;;;;;;8.16;100.00;96234.00;5087132;28;20182;-57
2023/03/28 08:21:26;;;;;;;1999.90;999.90;;;;;;;8.09;100.00;96239.34;5087428;28;20200;-57
2023/03/28 08:23:52;;;;;;;1999.90;999.90;;;;;;;8.17;100.00;96241.03;5087483;28;20185;-57
2023/03/28 08:26:17;;;;;;;1999.90;999.90;;;;;;;7.59;100.00;96242.44;5087014;28;20187;-57
2023/03/28 08:28:43;;;;;;;1999.90;999.90;;;;;;;7.14;100.00;96247.81;5087140;28;20975;-57
2023/03/28 08:31:13;;;;;;;1999.90;999.90;;;;;;;6.62;100.00;96244.84;5087195;28;20197;-57
2023/03/28 08:33:47;;;;;;;1999.90;999.90;;;;;;;8.15;100.00;96248.75;5087402;28;20184;-57
2023/03/28 08:36:13;;;;;;;1999.90;999.90;;;;;;;8.41;100.00;96246.06;5086810;28;20204;-57
2023/03/28 08:38:46;;;;;;;1999.90;999.90;;;;;;;8.62;100.00;96249.06;5086544;28;20242;-57
2023/03/28 08:41:14;;;;;;;1999.90;999.90;;;;;;;9.97;100.00;96245.44;5086512;28;20183;-57
2023/03/28 08:44:01;;;;;;;1999.90;999.90;;;;;;;11.98;100.00;96244.38;5086863;28;20183;-57
2023/03/28 08:46:29;;;;;;;1999.90;999.90;;;;;;;12.58;83.96;96243.13;5086505;28;20248;-57
2023/03/28 08:48:56;;;;;;;1999.90;999.90;;;;;;;11.30;82.55;96252.81;5086529;28;20176;-57
2023/03/28 08:51:26;;;;;;;1999.90;999.90;;;;;;;11.07;78.98;96255.09;5086509;28;20173;-58
2023/03/28 08:54:09;;;;;;;1999.90;999.90;;;;;;;9.65;86.14;96260.75;5086733;28;20260;-57
2023/03/28 08:56:40;;;;;;;1999.90;999.90;;;;;;;9.83;86.32;96245.31;5086384;28;20282;-57
2023/03/28 08:59:15;;;;;;;1999.90;999.90;;;;;;;11.70;76.32;96258.00;5086605;28;20201;-57
2023/03/28 09:01:41;;;;;;;1999.90;999.90;;;;;;;11.90;70.36;96251.78;5085970;28;20173;-57
2023/03/28 09:04:19;;;;;;;1999.90;999.90;;;;;;;12.76;65.23;96256.78;5086104;28;20234;-58
2023/03/28 09:06:48;;;;;;;1999.90;999.90;;;;;;;13.16;62.47;96259.03;5086872;28;20180;-57
2023/03/28 09:09:13;;;;;;;1999.90;999.90;;;;;;;13.19;62.14;96260.97;5086132;28;20177;-57
2023/03/28 09:11:53;;;;;;;1999.90;999.90;;;;;;;11.91;64.66;96256.06;5086583;28;20219;-57
2023/03/28 09:14:28;;;;;;;1999.90;999.90;;;;;;;11.10;67.88;96257.03;5086024;28;20180;-57
2023/03/28 09:16:56;;;;;;;1999.90;999.90;;;;;;;11.86;65.36;96244.72;5086045;28;20179;-58
2023/03/28 09:19:31;;;;;;;1999.90;999.90;;;;;;;11.58;68.05;96255.63;5085908;28;20183;-59
2023/03/28 09:22:15;;;;;;;1999.90;999.90;;;;;;;12.06;60.67;96254.13;5085922;28;20211;-57
2023/03/28 09:24:50;;;;;;;1999.90;999.90;;;;;;;11.12;67.90;96260.19;5086308;28;20278;-57
2023/03/28 09:27:24;;;;;;;1999.90;999.90;;;;;;;10.22;69.33;96270.22;5086400;28;20177;-57
2023/03/28 09:29:54;;;;;;;1999.90;999.90;;;;;;;11.42;62.56;96266.13;5085729;28;20250;-57
2023/03/28 09:32:36;;;;;;;1999.90;999.90;;;;;;;12.12;59.73;96260.75;5086203;28;20174;-57
2023/03/28 09:35:01;;;;;;;1999.90;999.90;;;;;;;12.92;55.48;96254.38;5086165;28;20256;-57
2023/03/28 09:38:01;;;;;;;1999.90;999.90;;;;;;;12.18;55.48;96256.47;5086511;28;20182;-57
2023/03/28 09:40:30;;;;;;;1999.90;999.90;;;;;;;11.34;56.83;96261.81;5034854;28;20189;-57
2023/03/28 09:43:18;;;;;;;1999.90;999.90;;;;;;;11.33;59.73;96255.53;5086084;28;20207;-57
2023/03/28 09:45:59;;;;;;;1999.90;999.90;;;;;;;10.92;55.33;96267.13;5056311;28;20192;-58
2023/03/28 09:48:28;;;;;;;1999.90;999.90;;;;;;;10.10;62.62;96265.81;5086026;28;20185;-57
2023/03/28 09:50:56;;;;;;;1999.90;999.90;;;;;;;9.53;64.49;96261.03;5085340;28;20172;-57
2023/03/28 09:53:27;;;;;;;1999.90;999.90;;;;;;;9.22;73.20;96264.19;5085473;28;20185;-58
2023/03/28 09:56:01;;;;;;;1999.90;999.90;;;;;;;8.71;66.86;96263.19;5085952;28;20200;-57
2023/03/28 09:58:26;;;;;;;1999.90;999.90;;;;;;;7.95;69.42;96269.06;5085772;28;20200;-57
2023/03/28 10:00:53;;;;;;;1999.90;999.90;;;;;;;7.88;71.80;96266.22;5085358;28;20179;-57
2023/03/28 10:03:28;;;;;;;1999.90;999.90;;;;;;;7.75;76.67;96267.53;5085719;28;20174;-57
2023/03/28 10:05:59;;;;;;;1999.90;999.90;;;;;;;7.51;80.52;96267.13;5085513;28;20171;-57
2023/03/28 10:08:38;;;;;;;1999.90;999.90;;;;;;;7.41;85.50;96267.72;5085193;28;20175;-57
2023/03/28 10:11:12;;;;;;;1999.90;999.90;;;;;;;7.37;88.72;96266.88;5085014;28;20240;-57
2023/03/28 10:13:44;;;;;;;1999.90;999.90;;;;;;;7.23;90.78;96266.59;5084934;28;20240;-57
2023/03/28 10:16:12;;;;;;;1999.90;999.90;;;;;;;7.07;92.80;96266.72;5084374;28;20276;-57
2023/03/28 10:18:40;;;;;;;1999.90;999.90;;;;;;;7.06;95.26;96269.78;5085326;28;20174;-57
2023/03/28 10:21:17;;;;;;;1999.90;999.90;;;;;;;7.05;97.83;96270.91;5084817;28;20173;-57
2023/03/28 10:23:48;;;;;;;1999.90;999.90;;;;;;;7.34;95.88;96262.16;5085144;28;20165;-57
2023/03/28 10:26:22;;;;;;;1999.90;999.90;;;;;;;9.22;86.84;96266.91;5085337;28;20169;-57
2023/03/28 10:28:53;;;;;;;1999.90;999.90;;;;;;;10.04;76.95;96261.88;5085146;28;20227;-57
2023/03/28 10:31:28;;;;;;;1999.90;999.90;;;;;;;9.72;73.44;96263.53;5085115;28;20247;-57
2023/03/28 10:33:55;;;;;;;1999.90;999.90;;;;;;;9.49;74.06;96262.94;5084658;28;20186;-57
2023/03/28 10:36:41;;;;;;;1999.90;999.90;;;;;;;8.48;75.86;96256.25;5084922;28;20201;-57
2023/03/28 10:39:25;;;;;;;1999.90;999.90;;;;;;;8.19;80.77;96255.03;5084946;28;20231;-57
2023/03/28 10:42:01;;;;;;;1999.90;999.90;;;;;;;8.29;79.29;96262.59;5084830;28;20242;-57
2023/03/28 10:44:32;;;;;;;1999.90;999.90;;;;;;;10.13;75.39;96242.47;5084524;28;20234;-57
2023/03/28 10:47:24;;;;;;;1999.90;999.90;;;;;;;11.34;63.43;96248.94;5085079;28;20176;-57
2023/03/28 10:49:52;;;;;;;1999.90;999.90;;;;;;;11.96;62.30;96243.97;5081557;28;20245;-58
2023/03/28 10:52:36;;;;;;;1999.90;999.90;;;;;;;11.57;57.44;96254.03;5084197;28;20174;-57
2023/03/28 10:55:15;;;;;;;1999.90;999.90;;;;;;;11.15;56.95;96253.94;5083968;28;20204;-57
2023/03/28 10:57:41;;;;;;;1999.90;999.90;;;;;;;10.39;58.31;96260.56;5084767;28;20177;-58
2023/03/28 11:00:18;;;;;;;1999.90;999.90;;;;;;;11.37;58.24;96252.84;5084047;28;20169;-60
2023/03/28 11:03:05;;;;;;;1999.90;999.90;;;;;;;12.56;55.26;96258.38;5084650;28;20222;-59
2023/03/28 11:05:37;;;;;;;1999.90;999.90;;;;;;;13.13;53.04;96246.09;5084062;28;20239;-57